Time;durP1;ratioP1;P1;durP2;ratioP2;P2;SDS_P1;SDS_P2;PMS_P1;PMS_P2;Temp;Humidity;BMP_temperature;BMP_pressure;BME280_temperature;BME280_humidity;BME280_pressure;Samples;Min_cycle;Max_cycle;Signal;HPM_P1;HPM_P2
2024/02/10 00:00:19;;;;;;;;;;;;;;;28.40;22.58;96089.28;5101150;28;19920;-79
2024/02/10 00:02:50;;;;;;;;;;;;;;;28.65;22.18;96090.38;5115269;28;19965;-79
2024/02/10 00:05:17;;;;;;;;;;;;;;;28.85;21.84;96095.78;5099374;28;19920;-79
2024/02/10 00:07:52;;;;;;;;;;;;;;;28.84;22.03;96099.13;5111059;28;20008;-78
2024/02/10 00:10:20;;;;;;;;;;;;;;;28.88;22.02;96097.56;5116510;28;20377;-79
2024/02/10 00:12:47;;;;;;;;;;;;;;;28.74;22.18;96095.78;5104288;28;20297;-79
2024/02/10 00:15:14;;;;;;;;;;;;;;;28.64;22.24;96092.44;5104416;28;20008;-79
2024/02/10 00:17:40;;;;;;;;;;;;;;;28.64;22.27;96105.78;5115262;28;20381;-79
2024/02/10 00:20:15;;;;;;;;;;;;;;;28.82;21.86;96094.00;5103137;28;20392;-79
2024/02/10 00:22:43;;;;;;;;;;;;;;;28.08;22.47;96097.19;5095605;28;19920;-79
2024/02/10 00:25:09;;;;;;;;;;;;;;;28.04;22.75;96107.94;5101283;28;19924;-79
2024/02/10 00:27:37;;;;;;;;;;;;;;;28.00;22.56;96101.78;5103857;28;19927;-79
2024/02/10 00:30:03;;;;;;;;;;;;;;;27.65;22.67;96109.03;5104813;28;20041;-78
2024/02/10 00:32:29;;;;;;;;;;;;;;;27.27;23.57;96116.75;5115002;28;19920;-79
2024/02/10 00:34:55;;;;;;;;;;;;;;;27.60;23.15;96109.78;5106759;28;20014;-79
2024/02/10 00:37:21;;;;;;;;;;;;;;;27.82;22.66;96115.53;5096560;28;20353;-79
2024/02/10 00:39:47;;;;;;;;;;;;;;;27.59;22.88;96111.06;5102340;28;19920;-79
2024/02/10 00:42:14;;;;;;;;;;;;;;;27.56;22.71;96112.88;5100224;28;19919;-79
2024/02/10 00:44:40;;;;;;;;;;;;;;;27.47;22.95;96110.22;5097244;28;20442;-79
2024/02/10 00:47:14;;;;;;;;;;;;;;;27.33;23.26;96113.94;5114212;28;21380;-79
2024/02/10 00:49:42;;;;;;;;;;;;;;;27.12;23.21;96118.94;5114773;28;19915;-79
2024/02/10 00:52:17;;;;;;;;;;;;;;;27.16;23.13;96115.91;5103009;28;19916;-79
2024/02/10 00:54:45;;;;;;;;;;;;;;;26.48;24.23;96116.63;5095117;28;19920;-79
2024/02/10 00:57:14;;;;;;;;;;;;;;;26.55;24.32;96118.19;5108673;28;19978;-79
2024/02/10 00:59:44;;;;;;;;;;;;;;;27.11;23.79;96117.41;5095133;28;19916;-79
2024/02/10 01:02:20;;;;;;;;;;;;;;;27.56;23.87;96112.09;5095358;28;20296;-79
2024/02/10 01:04:49;;;;;;;;;;;;;;;27.05;24.31;96115.84;5094732;28;19920;-79
2024/02/10 01:07:15;;;;;;;;;;;;;;;26.94;24.87;96112.91;5095405;28;20271;-79
2024/02/10 01:09:44;;;;;;;;;;;;;;;27.40;24.48;96110.69;5076853;28;19923;-79
2024/02/10 01:12:10;;;;;;;;;;;;;;;27.79;24.31;96099.63;5104113;28;19945;-79
2024/02/10 01:14:38;;;;;;;;;;;;;;;27.86;24.47;96105.56;5113145;28;19923;-79
2024/02/10 01:17:04;;;;;;;;;;;;;;;28.26;23.95;96095.19;5113413;28;20466;-79
2024/02/10 01:19:30;;;;;;;;;;;;;;;28.47;23.38;96096.50;5114108;28;19915;-79
2024/02/10 01:21:56;;;;;;;;;;;;;;;28.72;22.84;96093.47;5114793;28;20421;-79
2024/02/10 01:24:27;;;;;;;;;;;;;;;28.44;23.32;96092.66;5094832;28;19943;-79
2024/02/10 01:26:54;;;;;;;;;;;;;;;28.64;23.51;96086.00;5110731;28;19970;-79
2024/02/10 01:29:20;;;;;;;;;;;;;;;27.97;23.68;96085.84;5109262;27;20409;-79
2024/02/10 01:31:47;;;;;;;;;;;;;;;27.69;23.95;96084.19;5107373;27;19930;-79
2024/02/10 01:34:15;;;;;;;;;;;;;;;28.18;23.93;96088.47;5096849;28;20047;-79
2024/02/10 01:36:41;;;;;;;;;;;;;;;28.44;24.05;96089.81;5108573;27;19920;-79
2024/02/10 01:39:09;;;;;;;;;;;;;;;28.64;23.67;96078.31;5111564;28;20384;-79
2024/02/10 01:41:35;;;;;;;;;;;;;;;28.67;23.97;96097.06;5102272;28;19919;-79
2024/02/10 01:44:01;;;;;;;;;;;;;;;28.41;24.10;96090.84;5101547;27;19927;-79
2024/02/10 01:46:27;;;;;;;;;;;;;;;28.51;23.93;96092.16;5109853;27;19934;-79
2024/02/10 01:48:55;;;;;;;;;;;;;;;28.28;23.83;96092.63;5093690;28;20011;-79
2024/02/10 01:51:23;;;;;;;;;;;;;;;28.29;24.22;96091.31;5103612;28;20019;-79
2024/02/10 01:53:50;;;;;;;;;;;;;;;27.90;24.91;96082.75;5114141;28;19923;-79
2024/02/10 01:56:16;;;;;;;;;;;;;;;28.03;25.05;96078.19;5107008;28;19927;-79
2024/02/10 01:58:46;;;;;;;;;;;;;;;28.41;24.45;96081.59;5107902;28;20023;-79
2024/02/10 02:01:15;;;;;;;;;;;;;;;28.37;24.65;96069.78;5105951;28;19950;-79
2024/02/10 02:03:43;;;;;;;;;;;;;;;28.46;24.50;96080.84;5088181;28;20387;-79
2024/02/10 02:06:18;;;;;;;;;;;;;;;28.67;24.11;96074.47;5112852;28;19926;-79
2024/02/10 02:08:47;;;;;;;;;;;;;;;28.62;24.19;96072.41;5106581;28;20334;-79
2024/02/10 02:11:14;;;;;;;;;;;;;;;28.51;24.38;96071.59;5099324;28;19920;-79
2024/02/10 02:13:41;;;;;;;;;;;;;;;28.80;24.08;96071.13;5099700;28;19920;-79
2024/02/10 02:16:07;;;;;;;;;;;;;;;29.13;23.74;96070.31;5104721;28;19920;-79
2024/02/10 02:18:33;;;;;;;;;;;;;;;29.23;23.67;96063.13;5093409;28;19917;-79
2024/02/10 02:21:00;;;;;;;;;;;;;;;29.18;24.00;96061.09;5095878;28;19916;-79
2024/02/10 02:23:26;;;;;;;;;;;;;;;29.34;23.83;96057.44;5098963;28;19927;-79
2024/02/10 02:25:52;;;;;;;;;;;;;;;29.45;23.50;96062.31;5093987;28;20446;-79
2024/02/10 02:28:21;;;;;;;;;;;;;;;29.27;23.63;96055.94;5098542;28;19919;-79
2024/02/10 02:30:47;;;;;;;;;;;;;;;29.06;23.98;96065.97;5096881;28;19965;-79
2024/02/10 02:33:13;;;;;;;;;;;;;;;28.97;24.21;96054.94;5081419;28;19920;-79
2024/02/10 02:35:40;;;;;;;;;;;;;;;29.11;24.34;96050.28;5093385;28;19920;-79
2024/02/10 02:38:07;;;;;;;;;;;;;;;29.35;23.78;96045.63;5113470;28;19960;-79
2024/02/10 02:40:33;;;;;;;;;;;;;;;29.54;23.69;96042.22;5105265;28;19973;-79
2024/02/10 02:43:02;;;;;;;;;;;;;;;29.61;23.59;96042.47;5109392;28;19920;-79
2024/02/10 02:45:31;;;;;;;;;;;;;;;29.05;24.06;96044.66;5094169;28;19920;-79
2024/02/10 02:48:01;;;;;;;;;;;;;;;28.97;24.16;96043.63;5093450;28;19920;-79
2024/02/10 02:50:28;;;;;;;;;;;;;;;28.91;24.34;96042.09;5101366;28;19916;-80
2024/02/10 02:52:57;;;;;;;;;;;;;;;28.87;24.56;96038.78;5107916;28;19927;-80
2024/02/10 02:55:24;;;;;;;;;;;;;;;29.14;23.94;96038.72;5108435;28;19928;-79
2024/02/10 02:57:51;;;;;;;;;;;;;;;29.41;24.04;96045.59;5096703;28;20015;-79
2024/02/10 03:00:17;;;;;;;;;;;;;;;29.03;24.12;96037.97;5097188;28;20153;-80
2024/02/10 03:02:44;;;;;;;;;;;;;;;28.79;24.72;96040.56;5097117;28;20285;-79
2024/02/10 03:05:11;;;;;;;;;;;;;;;28.57;25.00;96039.25;5081485;28;19923;-79
2024/02/10 03:07:45;;;;;;;;;;;;;;;28.79;24.98;96040.56;5106242;28;19920;-79
2024/02/10 03:10:14;;;;;;;;;;;;;;;29.02;24.67;96031.56;5106177;28;20065;-80
2024/02/10 03:12:46;;;;;;;;;;;;;;;29.07;24.73;96049.78;5111597;28;20019;-80
2024/02/10 03:15:13;;;;;;;;;;;;;;;29.12;24.52;96049.00;5110004;28;19922;-79
2024/02/10 03:17:39;;;;;;;;;;;;;;;28.74;25.07;96044.94;5117785;28;19916;-80
2024/02/10 03:20:06;;;;;;;;;;;;;;;28.78;25.01;96048.25;5097229;28;20369;-79
2024/02/10 03:22:32;;;;;;;;;;;;;;;29.02;24.61;96034.38;5099372;28;19967;-80
2024/02/10 03:24:58;;;;;;;;;;;;;;;29.37;24.30;96031.75;5112054;28;19924;-80
2024/02/10 03:27:24;;;;;;;;;;;;;;;29.46;24.60;96033.50;5107771;28;19995;-80
2024/02/10 03:29:50;;;;;;;;;;;;;;;29.29;24.62;96036.38;5096892;28;19970;-80
2024/02/10 03:32:16;;;;;;;;;;;;;;;29.44;24.50;96038.91;5111976;28;19923;-80
2024/02/10 03:34:43;;;;;;;;;;;;;;;28.89;24.89;96039.03;5117201;28;19916;-80
2024/02/10 03:37:12;;;;;;;;;;;;;;;28.79;24.92;96040.56;5108720;28;20285;-80
2024/02/10 03:39:38;;;;;;;;;;;;;;;28.80;24.99;96039.28;5100506;28;20027;-80
2024/02/10 03:42:05;;;;;;;;;;;;;;;28.83;25.20;96044.66;5096949;28;19916;-80
2024/02/10 03:44:31;;;;;;;;;;;;;;;28.81;25.19;96043.63;5101517;28;19920;-80
2024/02/10 03:47:00;;;;;;;;;;;;;;;28.61;25.20;96041.88;5110570;28;20289;-80
2024/02/10 03:49:29;;;;;;;;;;;;;;;28.58;25.54;96045.69;5098674;28;19926;-80
2024/02/10 03:51:56;;;;;;;;;;;;;;;28.64;25.34;96057.78;5095735;28;19927;-80
2024/02/10 03:54:22;;;;;;;;;;;;;;;28.60;25.52;96063.69;5100209;28;19920;-80
2024/02/10 03:56:49;;;;;;;;;;;;;;;27.99;26.35;96062.78;5113225;28;19932;-80
2024/02/10 03:59:16;;;;;;;;;;;;;;;26.91;27.57;96068.88;5098200;28;19916;-80
2024/02/10 04:01:42;;;;;;;;;;;;;;;27.34;27.16;96065.56;5104283;28;19916;-80
2024/02/10 04:04:08;;;;;;;;;;;;;;;26.63;27.85;96065.81;5096724;28;20006;-79
2024/02/10 04:06:34;;;;;;;;;;;;;;;27.26;27.38;96058.84;5095925;28;19985;-80
2024/02/10 04:09:01;;;;;;;;;;;;;;;27.10;27.43;96058.75;5106990;27;20372;-80
2024/02/10 04:11:27;;;;;;;;;;;;;;;27.24;27.11;96057.81;5115474;27;20291;-80
2024/02/10 04:13:58;;;;;;;;;;;;;;;27.57;27.03;96060.81;5100988;28;19920;-80
2024/02/10 04:16:24;;;;;;;;;;;;;;;27.89;26.41;96059.41;5096771;28;19923;-80
2024/02/10 04:18:51;;;;;;;;;;;;;;;27.27;27.11;96066.03;5096848;28;19920;-80
2024/02/10 04:21:17;;;;;;;;;;;;;;;27.12;27.75;96073.13;5114878;28;20022;-80
2024/02/10 04:23:43;;;;;;;;;;;;;;;27.04;27.70;96072.81;5100305;27;19927;-80
2024/02/10 04:26:09;;;;;;;;;;;;;;;27.61;26.97;96071.88;5116159;28;19923;-80
2024/02/10 04:28:35;;;;;;;;;;;;;;;28.05;26.21;96072.81;5095930;28;19920;-80
2024/02/10 04:31:02;;;;;;;;;;;;;;;28.33;25.80;96060.81;5100866;28;19927;-80
2024/02/10 04:33:28;;;;;;;;;;;;;;;27.94;26.28;96060.69;5098612;28;19970;-80
2024/02/10 04:35:54;;;;;;;;;;;;;;;27.60;26.74;96061.84;5095548;28;19916;-80
2024/02/10 04:38:22;;;;;;;;;;;;;;;27.39;27.18;96064.84;5085729;28;20022;-80
2024/02/10 04:40:48;;;;;;;;;;;;;;;27.43;26.88;96061.78;5098679;28;20006;-80
2024/02/10 04:43:17;;;;;;;;;;;;;;;27.33;27.08;96055.53;5111261;28;19920;-80
2024/02/10 04:45:44;;;;;;;;;;;;;;;27.64;26.74;96053.91;5112741;28;19920;-80
2024/02/10 04:48:13;;;;;;;;;;;;;;;27.34;27.05;96056.31;5095854;28;19937;-80
2024/02/10 04:50:39;;;;;;;;;;;;;;;26.73;28.09;96062.31;5095617;28;19927;-80
2024/02/10 04:53:08;;;;;;;;;;;;;;;26.99;27.69;96061.50;5098191;28;19920;-80
2024/02/10 04:55:35;;;;;;;;;;;;;;;27.39;27.19;96058.44;5094706;28;19927;-80
2024/02/10 04:58:02;;;;;;;;;;;;;;;27.34;27.18;96045.06;5096434;28;19919;-80
2024/02/10 05:00:28;;;;;;;;;;;;;;;27.50;27.02;96054.88;5110061;28;19920;-80
2024/02/10 05:02:54;;;;;;;;;;;;;;;27.91;26.34;96053.25;5098258;28;19920;-80
2024/02/10 05:05:20;;;;;;;;;;;;;;;27.85;26.46;96055.28;5095399;28;19916;-80
2024/02/10 05:07:47;;;;;;;;;;;;;;;27.97;26.33;96048.41;5095544;28;19927;-81
2024/02/10 05:10:18;;;;;;;;;;;;;;;27.74;26.60;96038.31;5094916;28;19922;-80
2024/02/10 05:12:46;;;;;;;;;;;;;;;27.57;26.97;96041.09;5094802;28;19916;-80
2024/02/10 05:15:15;;;;;;;;;;;;;;;28.02;26.19;96054.09;5094613;28;20010;-80
2024/02/10 05:17:41;;;;;;;;;;;;;;;28.35;25.97;96050.56;5094855;28;19916;-80
2024/02/10 05:20:18;;;;;;;;;;;;;;;28.06;26.01;96042.53;5104368;28;19919;-80
2024/02/10 05:22:51;;;;;;;;;;;;;;;28.03;26.26;96047.16;5095257;28;19920;-81
2024/02/10 05:25:18;;;;;;;;;;;;;;;28.29;25.98;96052.59;5093926;28;19925;-80
2024/02/10 05:27:45;;;;;;;;;;;;;;;28.73;25.22;96049.81;5098182;27;19924;-81
2024/02/10 05:30:14;;;;;;;;;;;;;;;28.47;25.45;96051.34;5096176;28;19963;-81
2024/02/10 05:32:44;;;;;;;;;;;;;;;28.12;25.85;96045.38;5098872;28;19931;-81
2024/02/10 05:35:20;;;;;;;;;;;;;;;27.90;26.21;96052.50;5078019;28;19916;-81
2024/02/10 05:37:47;;;;;;;;;;;;;;;28.00;26.16;96050.25;5099496;28;20018;-80
2024/02/10 05:40:14;;;;;;;;;;;;;;;27.98;26.16;96058.41;5103346;28;19942;-81
2024/02/10 05:42:44;;;;;;;;;;;;;;;27.16;27.03;96049.06;5093970;28;20054;-81
2024/02/10 05:45:11;;;;;;;;;;;;;;;27.04;27.41;96053.09;5093990;28;19920;-80
2024/02/10 05:47:39;;;;;;;;;;;;;;;26.91;27.68;96054.81;5102074;28;19942;-80
2024/02/10 05:50:08;;;;;;;;;;;;;;;26.46;28.29;96056.47;5113729;28;20014;-81
2024/02/10 05:52:42;;;;;;;;;;;;;;;27.07;27.42;96054.88;5098105;28;19922;-81
2024/02/10 05:55:09;;;;;;;;;;;;;;;27.68;26.69;96051.66;5097003;28;20019;-81
2024/02/10 05:57:35;;;;;;;;;;;;;;;27.77;26.45;96052.16;5101544;28;19934;-81
2024/02/10 06:00:09;;;;;;;;;;;;;;;27.13;27.37;96050.06;5105916;28;19920;-81
2024/02/10 06:02:38;;;;;;;;;;;;;;;27.86;26.34;96054.00;5093977;28;19916;-81
2024/02/10 06:05:07;;;;;;;;;;;;;;;28.58;25.54;96054.16;5099321;28;19920;-81
2024/02/10 06:07:35;;;;;;;;;;;;;;;28.96;24.95;96053.41;5113974;28;19930;-81
2024/02/10 06:10:07;;;;;;;;;;;;;;;28.97;24.97;96056.97;5114339;28;19939;-81
2024/02/10 06:12:33;;;;;;;;;;;;;;;28.82;25.16;96057.28;5112945;28;19973;-81
2024/02/10 06:14:59;;;;;;;;;;;;;;;28.79;24.98;96057.50;5112896;28;19916;-81
2024/02/10 06:17:26;;;;;;;;;;;;;;;28.85;25.15;96066.75;5110216;28;19917;-80
2024/02/10 06:19:52;;;;;;;;;;;;;;;28.04;26.15;96060.00;5076034;28;19927;-81
2024/02/10 06:22:18;;;;;;;;;;;;;;;28.16;25.91;96065.66;5097625;28;19920;-81
2024/02/10 06:24:44;;;;;;;;;;;;;;;28.61;25.16;96065.22;5097566;27;19977;-82
2024/02/10 06:27:10;;;;;;;;;;;;;;;27.76;26.49;96076.03;5092905;28;20016;-82
2024/02/10 06:29:36;;;;;;;;;;;;;;;27.59;26.74;96074.41;5103137;28;19924;-82
2024/02/10 06:32:05;;;;;;;;;;;;;;;28.01;26.23;96068.69;5081380;28;20049;-82
2024/02/10 06:34:32;;;;;;;;;;;;;;;27.47;26.96;96067.19;5107556;28;20309;-82
2024/02/10 06:36:58;;;;;;;;;;;;;;;27.50;27.05;96069.75;5094868;28;20292;-82
2024/02/10 06:39:24;;;;;;;;;;;;;;;26.32;28.25;96075.03;5097443;28;19940;-81
2024/02/10 06:41:50;;;;;;;;;;;;;;;25.48;29.64;96068.94;5097231;28;19928;-81
2024/02/10 06:44:17;;;;;;;;;;;;;;;26.63;28.54;96077.06;5093764;28;19977;-82
2024/02/10 06:46:43;;;;;;;;;;;;;;;25.71;29.59;96070.75;5092854;28;20523;-82
2024/02/10 06:49:09;;;;;;;;;;;;;;;25.75;29.67;96072.06;5093409;28;20736;-81
2024/02/10 06:51:35;;;;;;;;;;;;;;;26.82;28.37;96077.50;5092449;28;20019;-81
2024/02/10 06:54:02;;;;;;;;;;;;;;;27.39;27.30;96069.72;5092222;28;19920;-81
2024/02/10 06:56:28;;;;;;;;;;;;;;;27.57;27.28;96079.78;5092688;28;19979;-82
2024/02/10 06:58:56;;;;;;;;;;;;;;;28.10;26.41;96079.75;5099350;28;19962;-81
2024/02/10 07:01:22;;;;;;;;;;;;;;;27.93;26.47;96071.22;5100686;28;20003;-81
2024/02/10 07:03:48;;;;;;;;;;;;;;;26.44;28.51;96076.63;5107667;28;20014;-81
2024/02/10 07:06:17;;;;;;;;;;;;;;;26.38;28.94;96084.28;5105048;28;19920;-81
2024/02/10 07:08:44;;;;;;;;;;;;;;;27.44;27.33;96077.44;5096520;28;19923;-81
2024/02/10 07:11:10;;;;;;;;;;;;;;;28.07;26.39;96072.31;5113201;28;19916;-81
2024/02/10 07:13:36;;;;;;;;;;;;;;;28.32;26.05;96074.16;5113287;28;20030;-80
2024/02/10 07:16:05;;;;;;;;;;;;;;;28.28;26.07;96075.69;5113549;28;20269;-81
2024/02/10 07:18:32;;;;;;;;;;;;;;;27.98;26.64;96080.97;5112625;28;19916;-81
2024/02/10 07:20:59;;;;;;;;;;;;;;;28.25;26.21;96079.53;5105182;28;20049;-81
2024/02/10 07:23:28;;;;;;;;;;;;;;;28.06;26.21;96077.19;5095401;28;19921;-81
2024/02/10 07:25:54;;;;;;;;;;;;;;;28.01;26.55;96074.34;5095370;28;19996;-81
2024/02/10 07:28:22;;;;;;;;;;;;;;;28.25;26.16;96080.28;5101207;28;19920;-81
2024/02/10 07:30:52;;;;;;;;;;;;;;;28.21;26.05;96079.00;5113421;28;19916;-81
2024/02/10 07:33:22;;;;;;;;;;;;;;;28.42;26.14;96072.63;5112902;28;19919;-81
2024/02/10 07:35:50;;;;;;;;;;;;;;;28.12;26.39;96073.59;5113428;28;19916;-81
2024/02/10 07:38:20;;;;;;;;;;;;;;;27.67;26.98;96062.16;5094576;28;19923;-81
2024/02/10 07:40:46;;;;;;;;;;;;;;;27.90;26.93;96066.59;5093090;28;19926;-81
2024/02/10 07:43:15;;;;;;;;;;;;;;;27.92;26.75;96069.66;5092681;28;19920;-82
2024/02/10 07:45:42;;;;;;;;;;;;;;;27.94;26.89;96067.09;5093469;28;20365;-81
2024/02/10 07:48:08;;;;;;;;;;;;;;;28.41;26.34;96071.09;5101573;28;19920;-81
2024/02/10 07:50:38;;;;;;;;;;;;;;;28.62;25.77;96069.59;5080745;28;19965;-81
2024/02/10 07:53:05;;;;;;;;;;;;;;;28.46;25.97;96066.72;5110224;28;19920;-81
2024/02/10 07:55:35;;;;;;;;;;;;;;;28.31;26.38;96074.66;5108067;28;20019;-81
2024/02/10 07:58:04;;;;;;;;;;;;;;;28.33;26.21;96066.47;5078567;28;19928;-81
2024/02/10 08:00:32;;;;;;;;;;;;;;;28.34;26.30;96067.97;5106827;28;20396;-81
2024/02/10 08:03:02;;;;;;;;;;;;;;;28.12;26.72;96068.75;5116547;28;19916;-81
2024/02/10 08:05:28;;;;;;;;;;;;;;;28.16;26.48;96069.25;5094319;28;19966;-81
2024/02/10 08:07:56;;;;;;;;;;;;;;;27.93;26.82;96070.44;5103095;27;19919;-81
2024/02/10 08:10:22;;;;;;;;;;;;;;;28.27;26.60;96072.09;5106467;28;19920;-82
2024/02/10 08:12:50;;;;;;;;;;;;;;;28.54;26.11;96070.59;5101702;27;19916;-81
2024/02/10 08:15:16;;;;;;;;;;;;;;;28.34;26.40;96073.63;5100777;27;19920;-82
2024/02/10 08:17:43;;;;;;;;;;;;;;;28.64;25.98;96071.88;5105233;27;19923;-81
2024/02/10 08:20:12;;;;;;;;;;;;;;;28.23;26.40;96070.81;5100914;28;20393;-81
2024/02/10 08:22:38;;;;;;;;;;;;;;;28.14;26.53;96076.69;5115481;27;20014;-82
2024/02/10 08:25:07;;;;;;;;;;;;;;;28.16;26.69;96072.06;5115873;28;19920;-82
2024/02/10 08:27:33;;;;;;;;;;;;;;;28.46;26.44;96075.97;5115403;27;19989;-81
2024/02/10 08:30:03;;;;;;;;;;;;;;;28.63;25.95;96073.19;5106287;28;20404;-81
2024/02/10 08:32:29;;;;;;;;;;;;;;;28.67;26.16;96073.69;5097041;28;19947;-81
2024/02/10 08:34:57;;;;;;;;;;;;;;;28.90;25.78;96080.09;5094519;28;19927;-81
2024/02/10 08:37:23;;;;;;;;;;;;;;;28.75;26.05;96075.47;5106296;27;19973;-82
2024/02/10 08:39:49;;;;;;;;;;;;;;;28.73;26.26;96071.63;5112257;28;20052;-81
2024/02/10 08:42:15;;;;;;;;;;;;;;;28.80;25.87;96071.13;5111630;28;19916;-82
2024/02/10 08:44:44;;;;;;;;;;;;;;;28.91;26.04;96082.44;5108022;28;19966;-81
2024/02/10 08:47:10;;;;;;;;;;;;;;;29.01;25.89;96086.50;5102210;28;19977;-82
2024/02/10 08:49:36;;;;;;;;;;;;;;;28.83;26.29;96072.91;5110498;28;20010;-82
2024/02/10 08:52:04;;;;;;;;;;;;;;;28.89;25.79;96076.53;5113584;28;19916;-81
2024/02/10 08:54:30;;;;;;;;;;;;;;;28.92;26.05;96074.69;5110599;27;19927;-81
2024/02/10 08:57:00;;;;;;;;;;;;;;;28.94;26.47;96074.97;5106604;28;19934;-82
2024/02/10 08:59:31;;;;;;;;;;;;;;;29.04;26.14;96079.06;5108208;28;20370;-82
2024/02/10 09:02:01;;;;;;;;;;;;;;;29.29;25.94;96072.38;5111002;28;19926;-81
2024/02/10 09:04:28;;;;;;;;;;;;;;;29.37;25.77;96079.81;5106315;28;19974;-81
2024/02/10 09:06:54;;;;;;;;;;;;;;;29.12;26.07;96082.91;5109275;28;19916;-81
2024/02/10 09:09:20;;;;;;;;;;;;;;;29.17;26.47;96080.06;5108371;27;19926;-81
2024/02/10 09:11:47;;;;;;;;;;;;;;;29.24;26.56;96070.34;5110080;28;20182;-81
2024/02/10 09:14:13;;;;;;;;;;;;;;;29.13;26.98;96079.56;5107956;28;19959;-82
2024/02/10 09:16:39;;;;;;;;;;;;;;;29.38;27.33;96075.69;5109161;28;19970;-82
2024/02/10 09:19:05;;;;;;;;;;;;;;;29.38;27.23;96078.50;5110024;28;19927;-82
2024/02/10 09:21:31;;;;;;;;;;;;;;;29.43;27.08;96072.06;5101410;27;20015;-80
2024/02/10 09:24:02;;;;;;;;;;;;;;;29.58;27.44;96068.16;5102397;27;20022;-80
2024/02/10 09:26:28;;;;;;;;;;;;;;;30.08;26.92;96061.00;5110516;28;19924;-80
2024/02/10 09:28:54;;;;;;;;;;;;;;;29.94;26.87;96058.53;5107038;28;19912;-80
2024/02/10 09:31:23;;;;;;;;;;;;;;;29.82;26.55;96060.66;5101057;28;20374;-80
2024/02/10 09:33:49;;;;;;;;;;;;;;;30.19;26.33;96065.84;5094817;28;19962;-80
2024/02/10 09:36:16;;;;;;;;;;;;;;;30.24;26.18;96061.44;5095436;28;19916;-81
2024/02/10 09:38:43;;;;;;;;;;;;;;;30.22;25.58;96064.81;5095193;28;19916;-81
2024/02/10 09:41:09;;;;;;;;;;;;;;;30.34;26.12;96074.03;5108442;28;19912;-80
2024/02/10 09:43:36;;;;;;;;;;;;;;;30.75;25.25;96074.75;5112955;28;20400;-80
2024/02/10 09:46:12;;;;;;;;;;;;;;;30.89;25.83;96084.97;5106439;28;19965;-81
2024/02/10 09:48:40;;;;;;;;;;;;;;;31.03;24.93;96078.16;5082027;28;19920;-81
2024/02/10 09:51:06;;;;;;;;;;;;;;;30.81;25.75;96080.41;5104897;28;19924;-81
2024/02/10 09:53:33;;;;;;;;;;;;;;;30.94;24.59;96081.34;5099834;28;20018;-80
2024/02/10 09:56:00;;;;;;;;;;;;;;;31.13;25.12;96081.41;5100046;28;19932;-80
2024/02/10 09:58:26;;;;;;;;;;;;;;;30.45;25.25;96086.06;5103564;28;20392;-80
2024/02/10 10:00:53;;;;;;;;;;;;;;;30.22;25.74;96081.81;5097800;27;19916;-81
2024/02/10 10:03:19;;;;;;;;;;;;;;;30.43;25.28;96085.03;5113956;27;19954;-81
2024/02/10 10:05:45;;;;;;;;;;;;;;;30.38;25.08;96080.97;5112550;27;20464;-80
2024/02/10 10:08:12;;;;;;;;;;;;;;;30.78;24.22;96076.53;5094506;28;19926;-80
2024/02/10 10:10:38;;;;;;;;;;;;;;;30.83;24.38;96081.38;5101944;28;19923;-81
2024/02/10 10:13:10;;;;;;;;;;;;;;;31.18;24.89;96078.50;5097128;28;20305;-80
2024/02/10 10:15:37;;;;;;;;;;;;;;;31.51;24.13;96085.19;5109116;28;20284;-80
2024/02/10 10:18:11;;;;;;;;;;;;;;;30.97;23.94;96085.94;5095428;28;19926;-80
2024/02/10 10:20:37;;;;;;;;;;;;;;;30.64;25.02;96081.28;5103511;28;19947;-80
2024/02/10 10:23:03;;;;;;;;;;;;;;;30.75;24.43;96075.53;5112399;28;19981;-81
2024/02/10 10:25:30;;;;;;;;;;;;;;;31.02;24.24;96082.28;5099081;28;19971;-80
2024/02/10 10:27:56;;;;;;;;;;;;;;;31.11;23.64;96070.59;5095711;27;20008;-80
2024/02/10 10:30:25;;;;;;;;;;;;;;;30.95;24.54;96074.34;5100743;28;20364;-80
2024/02/10 10:32:53;;;;;;;;;;;;;;;31.22;23.87;96083.91;5097947;28;20018;-80
2024/02/10 10:35:19;;;;;;;;;;;;;;;31.59;23.26;96086.91;5094544;28;19919;-80
2024/02/10 10:37:48;;;;;;;;;;;;;;;31.94;22.75;96072.53;5109778;28;20043;-80
2024/02/10 10:40:14;;;;;;;;;;;;;;;31.89;22.84;96064.84;5105404;28;20407;-80
2024/02/10 10:42:41;;;;;;;;;;;;;;;31.83;22.82;96061.34;5104546;28;20017;-80
2024/02/10 10:45:08;;;;;;;;;;;;;;;32.04;22.60;96051.00;5094584;28;20014;-80
2024/02/10 10:47:39;;;;;;;;;;;;;;;32.05;22.20;96051.75;5096041;28;19926;-81
2024/02/10 10:50:05;;;;;;;;;;;;;;;32.19;22.59;96052.59;5100237;28;20258;-81
2024/02/10 10:52:33;;;;;;;;;;;;;;;32.50;23.23;96040.56;5101179;28;20332;-81
2024/02/10 10:54:59;;;;;;;;;;;;;;;32.86;22.12;96043.84;5094529;28;20030;-80
2024/02/10 10:57:26;;;;;;;;;;;;;;;32.97;21.93;96041.59;5098337;28;19919;-81
2024/02/10 10:59:58;;;;;;;;;;;;;;;33.07;22.11;96039.13;5098496;28;19920;-81
2024/02/10 11:02:28;;;;;;;;;;;;;;;33.21;22.08;96040.69;5080624;28;20275;-82
2024/02/10 11:05:08;;;;;;;;;;;;;;;33.23;22.21;96033.13;5079081;28;19916;-81
2024/02/10 11:07:38;;;;;;;;;;;;;;;33.36;22.63;96044.50;5095877;28;20389;-81
2024/02/10 11:10:05;;;;;;;;;;;;;;;33.42;22.31;96036.63;5100286;28;19969;-81
2024/02/10 11:12:31;;;;;;;;;;;;;;;33.47;21.74;96042.78;5108379;28;19920;-81
2024/02/10 11:14:58;;;;;;;;;;;;;;;33.53;21.50;96049.13;5097596;28;19920;-80
2024/02/10 11:17:29;;;;;;;;;;;;;;;33.59;22.06;96039.16;5102725;28;20011;-81
2024/02/10 11:20:06;;;;;;;;;;;;;;;33.45;21.36;96049.00;5106337;28;21396;-82
2024/02/10 11:22:36;;;;;;;;;;;;;;;33.52;20.67;96039.03;5101296;28;19985;-81
2024/02/10 11:25:02;;;;;;;;;;;;;;;33.42;21.90;96041.56;5079065;28;19932;-82
2024/02/10 11:27:30;;;;;;;;;;;;;;;33.35;22.47;96036.53;5104261;28;19928;-81
2024/02/10 11:29:59;;;;;;;;;;;;;;;33.30;22.07;96037.41;5103579;28;19916;-81
2024/02/10 11:32:27;;;;;;;;;;;;;;;33.06;22.04;96037.56;5108367;27;19926;-81
2024/02/10 11:34:53;;;;;;;;;;;;;;;33.02;21.60;96040.75;5103001;27;19927;-81
2024/02/10 11:37:20;;;;;;;;;;;;;;;33.05;20.76;96044.59;5094194;28;19919;-81
2024/02/10 11:39:46;;;;;;;;;;;;;;;32.92;21.22;96050.19;5101791;27;19998;-81
2024/02/10 11:42:15;;;;;;;;;;;;;;;32.93;20.95;96049.66;5097019;28;20233;-82
2024/02/10 11:44:43;;;;;;;;;;;;;;;32.61;21.72;96049.66;5107343;27;19930;-81
2024/02/10 11:47:09;;;;;;;;;;;;;;;32.85;22.06;96048.75;5107295;28;19970;-81
2024/02/10 11:49:38;;;;;;;;;;;;;;;33.06;21.12;96046.09;5096172;28;19917;-81
2024/02/10 11:52:10;;;;;;;;;;;;;;;33.02;21.08;96052.13;5103485;28;19916;-82
2024/02/10 11:54:38;;;;;;;;;;;;;;;33.28;21.39;96052.16;5101758;27;20003;-80
2024/02/10 11:57:29;;;;;;;;;;;;;;;33.38;20.77;96056.09;5103488;27;19926;-82
2024/02/10 11:59:56;;;;;;;;;;;;;;;33.20;21.80;96062.66;5093786;27;20327;-80
2024/02/10 12:02:22;;;;;;;;;;;;;;;33.24;20.96;96056.63;5091004;28;19920;-81
2024/02/10 12:04:50;;;;;;;;;;;;;;;33.31;20.96;96056.75;5108487;28;19959;-81
2024/02/10 12:07:16;;;;;;;;;;;;;;;33.42;21.30;96055.78;5104834;27;19963;-81
2024/02/10 12:09:42;;;;;;;;;;;;;;;33.54;21.47;96047.84;5105230;27;20411;-81
2024/02/10 12:12:11;;;;;;;;;;;;;;;33.68;20.45;96052.22;5113036;28;20300;-81
2024/02/10 12:14:38;;;;;;;;;;;;;;;33.77;21.56;96054.63;5103986;27;19920;-80
2024/02/10 12:17:08;;;;;;;;;;;;;;;33.73;20.20;96049.25;5102755;27;19920;-82
2024/02/10 12:19:38;;;;;;;;;;;;;;;33.23;21.00;96043.72;5096749;28;19920;-82
2024/02/10 12:22:08;;;;;;;;;;;;;;;33.42;21.12;96053.69;5103140;27;19999;-82
2024/02/10 12:24:36;;;;;;;;;;;;;;;33.47;19.53;96057.75;5097294;27;20026;-81
2024/02/10 12:27:02;;;;;;;;;;;;;;;33.62;20.12;96052.31;5102769;27;20425;-80
2024/02/10 12:29:29;;;;;;;;;;;;;;;33.31;19.62;96051.06;5104086;28;19944;-81
2024/02/10 12:31:55;;;;;;;;;;;;;;;33.44;19.32;96051.06;5085420;28;19951;-81
2024/02/10 12:34:21;;;;;;;;;;;;;;;33.35;21.21;96051.50;5110964;27;19920;-81
2024/02/10 12:36:47;;;;;;;;;;;;;;;33.50;21.27;96058.72;5099703;27;19924;-81
2024/02/10 12:39:15;;;;;;;;;;;;;;;33.28;21.23;96057.09;5086187;28;19927;-81
2024/02/10 12:41:45;;;;;;;;;;;;;;;33.32;21.15;96064.00;5103409;28;19920;-81
2024/02/10 12:44:11;;;;;;;;;;;;;;;33.62;21.18;96051.53;5100248;28;19982;-81
2024/02/10 12:46:37;;;;;;;;;;;;;;;33.84;19.83;96062.50;5106427;28;19931;-81
2024/02/10 12:49:04;;;;;;;;;;;;;;;33.84;20.03;96051.09;5100511;28;19920;-80